createdAt,value
2022-08-17T00:00:44.030Z,100178.28
2022-08-17T00:03:45.787Z,100182.50
2022-08-17T00:06:29.577Z,100180.80
2022-08-17T00:09:03.911Z,100182.73
2022-08-17T00:11:41.619Z,100183.38
2022-08-17T00:14:15.613Z,100187.81
2022-08-17T00:16:56.672Z,100189.96
2022-08-17T00:19:26.706Z,100189.95
2022-08-17T00:22:31.361Z,100193.67
2022-08-17T00:24:46.473Z,100188.88
2022-08-17T00:27:16.173Z,100188.90
2022-08-17T00:29:46.125Z,100182.37
2022-08-17T00:33:14.543Z,100181.85
2022-08-17T00:35:10.372Z,100183.23
2022-08-17T00:37:39.135Z,100181.80
2022-08-17T00:40:12.123Z,100184.38
2022-08-17T00:42:42.014Z,100185.27
2022-08-17T00:45:14.214Z,100185.45
2022-08-17T00:47:44.193Z,100186.55
2022-08-17T00:50:17.577Z,100187.77
2022-08-17T00:52:55.258Z,100189.38
2022-08-17T00:55:26.675Z,100187.77
2022-08-17T00:58:00.765Z,100192.66
2022-08-17T01:00:39.609Z,100196.96
2022-08-17T01:03:19.623Z,100194.84
2022-08-17T01:05:53.410Z,100192.61
2022-08-17T01:08:26.389Z,100191.48
2022-08-17T01:11:01.780Z,100187.31
2022-08-17T01:13:41.964Z,100186.63
2022-08-17T01:16:29.102Z,100183.53
2022-08-17T01:19:04.143Z,100185.11
2022-08-17T01:21:42.987Z,100191.02
2022-08-17T01:24:11.511Z,100198.45
2022-08-17T01:26:42.458Z,100198.35
2022-08-17T01:29:11.561Z,100203.17
2022-08-17T01:31:51.315Z,100196.71
2022-08-17T01:34:20.481Z,100195.06
2022-08-17T01:36:50.360Z,100194.77
2022-08-17T01:39:28.006Z,100196.94
2022-08-17T01:42:29.553Z,100192.67
2022-08-17T01:45:06.126Z,100190.43
2022-08-17T01:47:36.150Z,100195.69
2022-08-17T01:50:18.695Z,100194.52
2022-08-17T01:52:51.731Z,100190.59
2022-08-17T01:55:27.521Z,100183.20
2022-08-17T01:57:56.193Z,100181.53
2022-08-17T02:00:24.997Z,100180.01
2022-08-17T02:02:53.487Z,100176.38
2022-08-17T02:05:22.172Z,100170.27
2022-08-17T02:07:59.571Z,100170.77
2022-08-17T02:10:34.211Z,100173.14
2022-08-17T02:13:04.811Z,100177.14
2022-08-17T02:15:34.789Z,100172.30
2022-08-17T02:18:05.720Z,100168.05
2022-08-17T02:20:41.790Z,100165.42
2022-08-17T02:23:13.246Z,100164.79
2022-08-17T02:25:45.875Z,100163.98
2022-08-17T02:28:17.027Z,100167.20
2022-08-17T02:30:59.579Z,100163.14
2022-08-17T02:33:43.298Z,100164.27
2022-08-17T02:36:14.067Z,100167.54
2022-08-17T02:38:42.965Z,100171.78
2022-08-17T02:41:12.726Z,100178.77
2022-08-17T02:43:41.352Z,100181.66
2022-08-17T02:46:10.174Z,100180.34
2022-08-17T02:48:40.097Z,100184.35
2022-08-17T02:51:09.307Z,100187.52
2022-08-17T02:53:37.758Z,100187.41
2022-08-17T02:56:06.796Z,100192.88
2022-08-17T02:58:36.203Z,100198.46
2022-08-17T03:01:08.729Z,100200.77
2022-08-17T03:03:38.990Z,100200.50
2022-08-17T03:06:08.527Z,100199.80
2022-08-17T03:08:38.270Z,100198.52
2022-08-17T03:11:06.739Z,100204.11
2022-08-17T03:13:35.324Z,100206.97
2022-08-17T03:16:04.068Z,100209.39
2022-08-17T03:18:32.693Z,100212.50
2022-08-17T03:21:04.469Z,100213.05
2022-08-17T03:23:33.850Z,100211.63
2022-08-17T03:26:02.380Z,100217.30
2022-08-17T03:28:30.900Z,100219.09
2022-08-17T03:30:59.490Z,100222.88
2022-08-17T03:33:28.057Z,100220.33
2022-08-17T03:35:57.295Z,100219.20
2022-08-17T03:38:26.862Z,100218.54
2022-08-17T03:40:59.424Z,100220.08
2022-08-17T03:43:33.224Z,100219.52
2022-08-17T03:46:26.970Z,100219.76
2022-08-17T03:49:16.180Z,100216.92
2022-08-17T03:52:02.757Z,100214.44
2022-08-17T03:54:49.799Z,100218.59
2022-08-17T03:57:19.351Z,100221.96
2022-08-17T03:59:48.270Z,100222.81
2022-08-17T04:02:25.742Z,100224.23
2022-08-17T04:04:54.388Z,100220.86
2022-08-17T04:07:26.084Z,100228.70
2022-08-17T04:09:54.944Z,100227.80
2022-08-17T04:12:25.013Z,100228.84
2022-08-17T04:14:55.025Z,100227.29
2022-08-17T04:17:28.824Z,100230.86
2022-08-17T04:19:57.740Z,100228.27
2022-08-17T04:22:32.401Z,100224.90
2022-08-17T04:25:18.824Z,100219.83
2022-08-17T04:27:49.088Z,100218.41
2022-08-17T04:30:17.873Z,100214.86
2022-08-17T04:33:11.380Z,100218.89
2022-08-17T04:35:50.501Z,100216.36
2022-08-17T04:38:25.105Z,100214.99
2022-08-17T04:41:13.326Z,100213.40
2022-08-17T04:43:43.927Z,100216.17
2022-08-17T04:46:19.212Z,100214.92
2022-08-17T04:48:51.991Z,100216.07
2022-08-17T04:51:26.180Z,100219.71
2022-08-17T04:54:04.018Z,100219.70
2022-08-17T04:56:33.660Z,100218.26
2022-08-17T04:59:06.824Z,100220.85
2022-08-17T05:01:38.427Z,100222.98
2022-08-17T05:04:33.137Z,100219.31
2022-08-17T05:07:01.036Z,100219.48
2022-08-17T05:09:29.862Z,100229.02
2022-08-17T05:12:02.602Z,100238.29
2022-08-17T05:14:33.012Z,100237.97
2022-08-17T05:17:04.597Z,100242.39
2022-08-17T05:19:39.563Z,100242.43
2022-08-17T05:22:08.481Z,100234.73
2022-08-17T05:24:42.601Z,100242.58
2022-08-17T05:27:15.906Z,100242.49
2022-08-17T05:29:48.044Z,100238.95
2022-08-17T05:32:38.000Z,100241.44
2022-08-17T05:35:07.253Z,100241.14
2022-08-17T05:38:01.124Z,100242.62
2022-08-17T05:40:32.815Z,100245.83
2022-08-17T05:43:35.199Z,100248.76
2022-08-17T05:46:29.650Z,100249.94
2022-08-17T05:49:12.521Z,100252.05
2022-08-17T05:51:59.096Z,100252.42
2022-08-17T05:55:56.133Z,100252.61
2022-08-17T05:59:16.941Z,100254.95
2022-08-17T06:02:38.253Z,100256.35
2022-08-17T06:05:51.795Z,100261.69
2022-08-17T06:08:57.006Z,100257.05
2022-08-17T06:12:09.316Z,100257.63
2022-08-17T06:15:26.608Z,100250.92
2022-08-17T06:18:10.242Z,100252.55
2022-08-17T06:20:56.836Z,100249.79
2022-08-17T06:24:26.888Z,100244.89
2022-08-17T06:27:30.477Z,100243.09
2022-08-17T06:30:10.734Z,100245.65
2022-08-17T06:32:49.811Z,100245.67
2022-08-17T06:35:50.199Z,100249.89
2022-08-17T06:39:03.370Z,100251.40
2022-08-17T06:41:54.699Z,100252.80
2022-08-17T06:45:10.939Z,100249.42
2022-08-17T06:47:58.380Z,100250.02
2022-08-17T06:51:30.438Z,100243.77
2022-08-17T06:54:09.749Z,100247.28
2022-08-17T06:57:06.830Z,100247.23
2022-08-17T06:59:55.327Z,100247.14
2022-08-17T07:02:52.290Z,100241.30
2022-08-17T07:05:30.878Z,100251.80
2022-08-17T07:08:27.696Z,100252.95
2022-08-17T07:11:04.296Z,100249.23
2022-08-17T07:14:16.518Z,100250.30
2022-08-17T07:16:56.465Z,100250.48
2022-08-17T07:19:35.397Z,100246.56
2022-08-17T07:26:39.322Z,100256.58
2022-08-17T07:29:18.287Z,100255.45
2022-08-17T07:32:37.333Z,100254.64
2022-08-17T07:35:11.542Z,100258.02
2022-08-17T07:38:25.770Z,100255.50
2022-08-17T07:45:41.139Z,100264.34
2022-08-17T07:49:32.695Z,100265.69
2022-08-17T07:52:51.775Z,100271.76
2022-08-17T07:56:14.760Z,100274.80
2022-08-17T07:59:54.206Z,100275.84
2022-08-17T08:03:13.456Z,100276.22
2022-08-17T08:05:56.400Z,100276.91
2022-08-17T08:08:43.626Z,100276.81
2022-08-17T08:11:28.773Z,100275.76
2022-08-17T08:14:41.091Z,100276.50
2022-08-17T08:17:27.405Z,100274.86
2022-08-17T08:19:57.947Z,100277.71
2022-08-17T08:22:43.624Z,100276.73
2022-08-17T08:25:50.804Z,100272.02
2022-08-17T08:29:13.948Z,100269.65
2022-08-17T08:32:19.631Z,100267.65
2022-08-17T08:35:07.614Z,100262.20
2022-08-17T08:38:13.800Z,100264.11
2022-08-17T08:41:03.707Z,100264.86
2022-08-17T08:43:56.097Z,100257.61
2022-08-17T08:46:40.816Z,100260.69
2022-08-17T08:50:02.045Z,100260.10
2022-08-17T08:53:19.252Z,100252.70
2022-08-17T08:55:54.785Z,100254.95
2022-08-17T08:59:21.837Z,100251.45
2022-08-17T09:02:25.724Z,100254.28
2022-08-17T09:05:26.582Z,100264.66
2022-08-17T09:08:22.252Z,100259.06
2022-08-17T09:11:31.665Z,100259.23
2022-08-17T09:14:28.817Z,100261.05
2022-08-17T09:17:09.896Z,100260.60
2022-08-17T09:19:58.492Z,100265.80
2022-08-17T09:22:45.085Z,100266.92
2022-08-17T09:25:27.149Z,100272.57
2022-08-17T09:28:10.809Z,100275.80
2022-08-17T09:30:56.468Z,100277.58
2022-08-17T09:33:33.631Z,100279.87
2022-08-17T09:36:22.108Z,100283.20
2022-08-17T09:39:29.666Z,100288.48
2022-08-17T09:42:43.299Z,100282.98
2022-08-17T09:45:38.053Z,100283.60
2022-08-17T09:48:19.938Z,100291.67
2022-08-17T09:51:45.770Z,100289.85
2022-08-17T09:54:39.007Z,100286.98
2022-08-17T09:57:30.367Z,100289.98
2022-08-17T10:00:12.442Z,100295.63
2022-08-17T10:03:20.081Z,100292.73
2022-08-17T10:05:57.342Z,100293.78
2022-08-17T10:09:12.674Z,100287.67
2022-08-17T10:12:22.121Z,100289.87
2022-08-17T10:15:49.127Z,100288.59
2022-08-17T10:18:39.084Z,100282.46
2022-08-17T10:21:34.515Z,100275.59
2022-08-17T10:24:39.258Z,100272.31
2022-08-17T10:27:19.451Z,100271.44
2022-08-17T10:30:05.001Z,100265.17
2022-08-17T10:32:35.438Z,100264.52
2022-08-17T10:35:38.010Z,100258.24
2022-08-17T10:39:04.770Z,100258.27
2022-08-17T10:41:48.443Z,100258.43
2022-08-17T10:44:56.382Z,100254.23
2022-08-17T10:47:27.241Z,100252.55
2022-08-17T10:49:56.222Z,100250.87
2022-08-17T10:52:29.665Z,100256.73
2022-08-17T10:55:32.982Z,100245.52
2022-08-17T10:58:22.263Z,100248.70
2022-08-17T11:00:59.705Z,100244.80
2022-08-17T11:03:38.062Z,100241.77
2022-08-17T11:06:45.191Z,100240.80
2022-08-17T11:10:19.509Z,100237.83
2022-08-17T11:14:25.642Z,100233.52
2022-08-17T11:17:53.123Z,100237.17
2022-08-17T11:21:47.361Z,100233.31
2022-08-17T11:25:33.045Z,100230.34
2022-08-17T11:32:37.659Z,100223.77
2022-08-17T11:36:02.104Z,100237.05
2022-08-17T11:39:06.578Z,100233.71
2022-08-17T11:42:05.732Z,100233.67
2022-08-17T11:44:59.661Z,100233.25
2022-08-17T11:48:28.541Z,100236.76
2022-08-17T11:52:07.475Z,100232.66
2022-08-17T11:55:17.554Z,100228.77
2022-08-17T11:58:43.696Z,100228.68
2022-08-17T12:01:29.579Z,100226.79
2022-08-17T12:04:28.043Z,100219.66
2022-08-17T12:07:25.082Z,100232.30
2022-08-17T12:10:01.281Z,100224.08
2022-08-17T12:12:47.168Z,100222.80
2022-08-17T12:15:29.497Z,100223.15
2022-08-17T12:17:59.087Z,100221.44
2022-08-17T12:20:38.423Z,100216.10
2022-08-17T12:23:32.264Z,100219.13
2022-08-17T12:26:31.938Z,100218.35
2022-08-17T12:29:18.272Z,100221.23
2022-08-17T12:32:20.565Z,100224.22
2022-08-17T12:34:52.546Z,100212.27
2022-08-17T12:37:35.110Z,100218.45
2022-08-17T12:40:37.065Z,100219.41
2022-08-17T12:43:22.165Z,100219.73
2022-08-17T12:46:15.186Z,100231.63
2022-08-17T12:48:59.083Z,100228.30
2022-08-17T12:51:29.693Z,100225.10
2022-08-17T12:54:00.176Z,100223.45
2022-08-17T12:56:30.140Z,100223.85
2022-08-17T12:58:59.313Z,100229.17
2022-08-17T13:01:35.601Z,100221.39
2022-08-17T13:04:07.460Z,100227.55
2022-08-17T13:06:37.500Z,100221.73
2022-08-17T13:09:33.573Z,100220.79
2022-08-17T13:12:05.642Z,100220.70
2022-08-17T13:14:36.363Z,100227.16
2022-08-17T13:17:11.293Z,100218.48
2022-08-17T13:19:51.083Z,100230.44
2022-08-17T13:22:24.667Z,100230.18
2022-08-17T13:24:58.991Z,100222.75
2022-08-17T13:27:30.370Z,100219.24
2022-08-17T13:30:05.852Z,100222.71
2022-08-17T13:32:43.827Z,100218.36
2022-08-17T13:35:40.621Z,100218.25
2022-08-17T13:38:51.061Z,100221.52
2022-08-17T13:41:51.445Z,100211.42
2022-08-17T13:44:36.180Z,100209.00
2022-08-17T13:47:16.249Z,100211.77
2022-08-17T13:49:48.814Z,100206.23
2022-08-17T13:52:52.435Z,100199.11
2022-08-17T13:55:24.382Z,100196.73
2022-08-17T13:58:06.787Z,100186.48
2022-08-17T14:00:37.147Z,100181.88
2022-08-17T14:03:06.334Z,100180.64
2022-08-17T14:05:38.037Z,100173.79
2022-08-17T14:08:07.374Z,100180.21
2022-08-17T14:10:37.193Z,100181.70
2022-08-17T14:13:07.868Z,100180.09
2022-08-17T14:15:55.884Z,100177.45
2022-08-17T14:18:55.282Z,100180.27
2022-08-17T14:21:16.670Z,100179.30
2022-08-17T14:23:54.985Z,100182.91
2022-08-17T14:26:24.251Z,100188.82
2022-08-17T14:28:54.742Z,100193.52
2022-08-17T14:31:26.805Z,100195.00
2022-08-17T14:33:55.815Z,100195.91
2022-08-17T14:36:24.560Z,100194.15
2022-08-17T14:38:53.163Z,100191.97
2022-08-17T14:41:23.979Z,100197.72
2022-08-17T14:43:53.582Z,100197.80
2022-08-17T14:46:23.009Z,100196.69
2022-08-17T14:48:57.349Z,100199.34
2022-08-17T14:51:30.168Z,100207.55
2022-08-17T14:53:59.869Z,100205.02
2022-08-17T14:56:35.350Z,100205.83
2022-08-17T14:59:07.541Z,100208.68
2022-08-17T15:01:37.030Z,100206.64
2022-08-17T15:04:06.435Z,100215.43
2022-08-17T15:06:35.474Z,100221.42
2022-08-17T15:09:05.187Z,100227.23
2022-08-17T15:11:35.215Z,100232.36
2022-08-17T15:14:04.135Z,100235.52
2022-08-17T15:16:36.760Z,100237.39
2022-08-17T15:19:12.980Z,100236.67
2022-08-17T15:21:42.535Z,100235.46
2022-08-17T15:24:11.397Z,100238.09
2022-08-17T15:26:40.977Z,100235.17
2022-08-17T15:29:11.155Z,100231.77
2022-08-17T15:31:40.658Z,100228.50
2022-08-17T15:34:52.894Z,100224.98
2022-08-17T15:37:25.429Z,100221.50
2022-08-17T15:39:55.143Z,100219.60
2022-08-17T15:42:26.039Z,100224.40
2022-08-17T15:45:33.756Z,100224.35
2022-08-17T15:48:21.518Z,100231.89
2022-08-17T15:50:50.968Z,100231.76
2022-08-17T15:54:19.087Z,100227.27
2022-08-17T15:57:08.023Z,100232.05
2022-08-17T16:00:04.537Z,100241.90
2022-08-17T16:03:45.549Z,100275.75
2022-08-17T16:07:03.865Z,100293.52
2022-08-17T16:10:45.300Z,100308.21
2022-08-17T16:13:54.455Z,100297.34
2022-08-17T16:16:55.794Z,100297.42
2022-08-17T16:19:34.452Z,100310.81
2022-08-17T16:22:19.158Z,100325.10
2022-08-17T16:24:57.448Z,100328.16
2022-08-17T16:27:28.296Z,100321.75
2022-08-17T16:29:57.099Z,100317.38
2022-08-17T16:32:31.671Z,100314.33
2022-08-17T16:35:12.386Z,100313.36
2022-08-17T16:37:41.765Z,100314.33
2022-08-17T16:40:25.702Z,100309.11
2022-08-17T16:44:01.148Z,100309.20
2022-08-17T16:46:52.713Z,100318.34
2022-08-17T16:49:49.286Z,100322.69
2022-08-17T16:52:42.118Z,100326.04
2022-08-17T16:55:17.393Z,100317.98
2022-08-17T16:58:00.173Z,100319.88
2022-08-17T17:00:38.956Z,100323.98
2022-08-17T17:03:48.028Z,100324.78
2022-08-17T17:07:07.339Z,100330.80
2022-08-17T17:11:23.620Z,100333.14
2022-08-17T17:14:50.106Z,100321.33
2022-08-17T17:26:11.212Z,100323.52
2022-08-17T17:29:17.906Z,100324.80
2022-08-17T17:33:26.389Z,100329.59
2022-08-17T17:41:08.490Z,100327.45
2022-08-17T17:44:19.802Z,100329.05
2022-08-17T17:47:37.327Z,100331.38
2022-08-17T17:50:57.445Z,100335.59
2022-08-17T17:54:28.485Z,100341.66
2022-08-17T17:57:19.037Z,100348.27
2022-08-17T18:00:01.586Z,100353.42
2022-08-17T18:03:33.075Z,100359.16
2022-08-17T18:06:34.279Z,100363.42
2022-08-17T18:09:40.200Z,100361.89
2022-08-17T18:12:16.478Z,100358.70
2022-08-17T18:15:37.927Z,100354.09
2022-08-17T18:18:18.721Z,100351.30
2022-08-17T18:21:24.209Z,100352.45
2022-08-17T18:24:02.504Z,100353.23
2022-08-17T18:26:45.017Z,100350.80
2022-08-17T18:29:29.186Z,100354.81
2022-08-17T18:32:51.527Z,100353.91
2022-08-17T18:35:37.051Z,100357.80
2022-08-17T18:38:45.694Z,100364.27
2022-08-17T18:41:45.881Z,100363.88
2022-08-17T18:44:43.888Z,100360.09
2022-08-17T18:47:21.545Z,100363.83
2022-08-17T18:50:29.136Z,100364.33
2022-08-17T18:53:34.511Z,100360.50
2022-08-17T18:56:32.750Z,100357.52
2022-08-17T18:59:26.513Z,100353.59
2022-08-17T19:02:23.134Z,100350.14
2022-08-17T19:05:41.642Z,100350.56
2022-08-17T19:08:38.366Z,100346.72
2022-08-17T19:11:34.410Z,100346.47
2022-08-17T19:14:10.972Z,100344.35
2022-08-17T19:17:04.896Z,100345.55
2022-08-17T19:19:56.487Z,100351.45
2022-08-17T19:22:43.937Z,100355.44
2022-08-17T19:25:19.471Z,100352.27
2022-08-17T19:28:21.663Z,100352.56
2022-08-17T19:31:03.181Z,100354.73
2022-08-17T19:33:57.622Z,100355.25
2022-08-17T19:36:59.765Z,100362.48
2022-08-17T19:40:09.231Z,100359.81
2022-08-17T19:43:16.651Z,100359.77
2022-08-17T19:45:56.183Z,100359.07
2022-08-17T19:48:51.790Z,100353.97
2022-08-17T19:51:44.819Z,100352.14
2022-08-17T19:54:39.852Z,100354.92
2022-08-17T19:57:47.934Z,100357.89
2022-08-17T20:00:19.270Z,100358.27
2022-08-17T20:03:16.578Z,100360.30
2022-08-17T20:09:15.055Z,100374.54
2022-08-17T20:11:56.506Z,100374.81
2022-08-17T20:14:37.605Z,100371.30
2022-08-17T20:17:37.472Z,100368.95
2022-08-17T20:20:46.890Z,100370.18
2022-08-17T20:23:33.949Z,100370.27
2022-08-17T20:26:39.534Z,100373.34
2022-08-17T20:29:15.302Z,100372.35
2022-08-17T20:32:08.389Z,100372.25
2022-08-17T20:34:39.998Z,100376.23
2022-08-17T20:37:14.785Z,100376.70
2022-08-17T20:40:09.892Z,100380.23
2022-08-17T20:42:39.403Z,100380.50
2022-08-17T20:45:26.558Z,100378.57
2022-08-17T20:48:30.570Z,100377.07
2022-08-17T20:51:01.189Z,100383.86
2022-08-17T20:53:50.235Z,100389.12
2022-08-17T20:56:45.058Z,100388.64
2022-08-17T20:59:42.724Z,100386.30
2022-08-17T21:02:33.788Z,100390.36
2022-08-17T21:05:27.919Z,100389.70
2022-08-17T21:08:45.905Z,100390.80
2022-08-17T21:12:02.477Z,100392.16
2022-08-17T21:14:23.932Z,100391.21
2022-08-17T21:17:59.346Z,100393.84
2022-08-17T21:20:40.354Z,100394.21
2022-08-17T21:23:18.968Z,100395.86
2022-08-17T21:26:51.042Z,100397.96
2022-08-17T21:29:31.136Z,100399.08
2022-08-17T21:32:10.330Z,100396.09
2022-08-17T21:34:44.925Z,100395.99
2022-08-17T21:37:24.685Z,100396.34
2022-08-17T21:40:00.407Z,100396.50
2022-08-17T21:42:38.221Z,100391.05
2022-08-17T21:45:28.483Z,100388.38
2022-08-17T21:48:24.735Z,100390.93
2022-08-17T21:51:13.181Z,100391.80
2022-08-17T21:53:53.046Z,100389.99
2022-08-17T21:56:25.812Z,100388.40
2022-08-17T21:59:19.599Z,100391.63
2022-08-17T22:02:30.896Z,100398.71
2022-08-17T22:05:13.439Z,100400.64
2022-08-17T22:07:59.012Z,100404.48
2022-08-17T22:10:45.432Z,100401.21
2022-08-17T22:13:29.721Z,100402.33
2022-08-17T22:16:28.839Z,100402.14
2022-08-17T22:19:00.775Z,100400.34
2022-08-17T22:21:29.722Z,100403.94
2022-08-17T22:24:27.034Z,100399.73
2022-08-17T22:27:25.886Z,100397.15
2022-08-17T22:31:04.517Z,100395.78
2022-08-17T22:34:07.732Z,100396.80
2022-08-17T22:36:40.575Z,100392.86
2022-08-17T22:39:09.094Z,100389.37
2022-08-17T22:42:03.335Z,100387.69
2022-08-17T22:44:32.129Z,100389.94
2022-08-17T22:47:43.167Z,100389.14
2022-08-17T22:50:33.554Z,100390.89
2022-08-17T22:53:35.765Z,100385.63
2022-08-17T22:56:23.990Z,100388.15
2022-08-17T22:59:20.095Z,100390.81
2022-08-17T23:02:14.908Z,100392.77
2022-08-17T23:04:55.760Z,100390.94
2022-08-17T23:07:24.369Z,100395.62
2022-08-17T23:09:53.508Z,100396.79
2022-08-17T23:12:26.760Z,100391.96
2022-08-17T23:15:01.194Z,100389.06
2022-08-17T23:17:36.931Z,100390.84
2022-08-17T23:20:09.283Z,100397.30
2022-08-17T23:22:51.548Z,100395.52
2022-08-17T23:25:31.538Z,100395.35
2022-08-17T23:28:25.235Z,100393.17
2022-08-17T23:30:53.752Z,100390.47
2022-08-17T23:33:30.234Z,100390.42
2022-08-17T23:36:01.857Z,100396.92
2022-08-17T23:38:32.009Z,100395.34
2022-08-17T23:41:05.678Z,100399.13
2022-08-17T23:43:34.344Z,100399.48
2022-08-17T23:46:03.807Z,100397.98
2022-08-17T23:48:36.938Z,100397.13
2022-08-17T23:51:16.763Z,100401.09
2022-08-17T23:53:55.343Z,100400.48
2022-08-17T23:56:26.167Z,100399.36
2022-08-17T23:58:56.001Z,100404.41
